Time;durP1;ratioP1;P1;durP2;ratioP2;P2;SDS_P1;SDS_P2;PMS_P1;PMS_P2;Temp;Humidity;BMP_temperature;BMP_pressure;BME280_temperature;BME280_humidity;BME280_pressure;Samples;Min_cycle;Max_cycle;Signal;HPM_P1;HPM_P2
2023/01/05 00:01:52;;;;;;;1.70;1.20;;;10.00;99.90;;;;;;6108576;23;20435;-57
2023/01/05 00:04:19;;;;;;;4.50;1.80;;;10.00;99.90;;;;;;6119815;23;20399;-57
2023/01/05 00:06:46;;;;;;;3.97;1.90;;;10.00;99.90;;;;;;6119416;23;20467;-54
2023/01/05 00:09:16;;;;;;;2.60;1.50;;;10.00;99.90;;;;;;6120425;23;20392;-57
2023/01/05 00:22:49;;;;;;;1.90;1.10;;;10.00;99.90;;;;;;6119497;23;20415;-53
2023/01/05 00:25:19;;;;;;;4.23;1.23;;;10.00;99.90;;;;;;6120352;23;20410;-57
2023/01/05 00:27:49;;;;;;;4.60;1.40;;;10.00;99.90;;;;;;6119006;23;20427;-58
2023/01/05 00:30:18;;;;;;;4.40;1.53;;;10.00;99.90;;;;;;6111508;23;20439;-58
2023/01/05 00:32:47;;;;;;;1.30;0.90;;;10.00;99.90;;;;;;6122523;23;20402;-57
2023/01/05 00:35:15;;;;;;;4.70;1.63;;;10.00;99.90;;;;;;6121701;23;20455;-60
2023/01/05 00:37:44;;;;;;;1.30;1.00;;;10.00;99.90;;;;;;6122112;23;20394;-55
2023/01/05 00:40:19;;;;;;;3.00;1.03;;;10.00;99.90;;;;;;6122066;23;20464;-59
2023/01/05 00:42:47;;;;;;;3.07;1.40;;;10.10;99.90;;;;;;6121235;23;20406;-55
2023/01/05 00:45:16;;;;;;;3.73;1.43;;;10.10;99.90;;;;;;6120842;23;20403;-59
2023/01/05 00:47:44;;;;;;;2.60;1.10;;;10.10;99.90;;;;;;6120654;23;20431;-58
2023/01/05 00:50:14;;;;;;;2.20;1.20;;;10.20;99.90;;;;;;6119203;23;20419;-58
2023/01/05 00:52:42;;;;;;;3.27;1.10;;;10.20;99.90;;;;;;6120201;23;20412;-60
2023/01/05 00:55:09;;;;;;;3.87;1.57;;;10.20;99.90;;;;;;6119296;23;20447;-59
2023/01/05 00:57:36;;;;;;;4.43;1.20;;;10.20;99.90;;;;;;6119973;23;20432;-58
2023/01/05 01:00:04;;;;;;;2.63;1.53;;;10.20;99.90;;;;;;6120970;23;20403;-56
2023/01/05 01:02:31;;;;;;;2.50;2.30;;;10.20;99.90;;;;;;6119623;23;20400;-58
2023/01/05 01:04:58;;;;;;;3.00;1.30;;;10.20;99.90;;;;;;6120886;23;20395;-66
2023/01/05 01:07:26;;;;;;;4.53;2.80;;;10.20;99.90;;;;;;6121498;23;20391;-62
2023/01/05 01:09:53;;;;;;;7.77;1.97;;;10.20;99.90;;;;;;6121519;23;20435;-57
2023/01/05 01:12:23;;;;;;;6.13;1.33;;;10.20;99.90;;;;;;6120955;23;20403;-58
2023/01/05 01:14:50;;;;;;;1.40;1.13;;;10.20;99.90;;;;;;6108311;23;20470;-53
2023/01/05 01:17:17;;;;;;;7.20;1.27;;;10.20;99.90;;;;;;6120856;23;20403;-56
2023/01/05 01:19:45;;;;;;;9.30;1.17;;;10.30;99.90;;;;;;6121773;23;20403;-57
2023/01/05 01:22:12;;;;;;;4.50;1.47;;;10.30;99.90;;;;;;6122296;23;20404;-56
2023/01/05 01:24:43;;;;;;;8.17;1.90;;;10.30;99.90;;;;;;6121884;23;20415;-55
2023/01/05 01:27:10;;;;;;;4.90;1.40;;;10.30;99.90;;;;;;6121313;23;20447;-57
2023/01/05 01:29:37;;;;;;;11.50;1.90;;;10.30;99.90;;;;;;6121434;23;20435;-57
2023/01/05 01:32:04;;;;;;;5.70;1.20;;;10.30;99.90;;;;;;6122209;23;20441;-59
2023/01/05 01:34:31;;;;;;;3.73;1.27;;;10.30;99.90;;;;;;6122367;23;20428;-59
2023/01/05 01:36:59;;;;;;;2.37;1.50;;;10.30;99.90;;;;;;6122818;23;20435;-59
2023/01/05 01:39:26;;;;;;;1.40;1.20;;;10.30;99.90;;;;;;6122468;23;20419;-56
2023/01/05 01:41:54;;;;;;;2.67;1.77;;;10.30;99.90;;;;;;6120615;23;20399;-54
2023/01/05 01:45:03;;;;;;;3.17;1.57;;;10.30;99.90;;;;;;6122303;23;20403;-57
2023/01/05 01:47:36;;;;;;;6.90;1.90;;;10.30;99.90;;;;;;6092306;23;20395;-53
2023/01/05 01:50:08;;;;;;;5.47;1.10;;;10.20;99.90;;;;;;6122019;23;20415;-59
2023/01/05 01:52:36;;;;;;;3.20;1.40;;;10.20;99.90;;;;;;6122122;23;20399;-56
2023/01/05 01:55:05;;;;;;;6.00;2.93;;;10.20;99.90;;;;;;6121798;23;20439;-57
2023/01/05 01:57:35;;;;;;;9.03;1.97;;;10.20;99.90;;;;;;6121492;23;20431;-58
2023/01/05 02:00:04;;;;;;;3.30;1.70;;;10.20;99.90;;;;;;6122181;23;20500;-56
2023/01/05 02:02:31;;;;;;;6.97;1.80;;;10.20;99.90;;;;;;6121646;23;20410;-57
2023/01/05 02:05:04;;;;;;;3.07;1.73;;;10.30;99.90;;;;;;6121441;23;20415;-59
2023/01/05 02:07:34;;;;;;;3.83;1.13;;;10.30;99.90;;;;;;6123254;23;20371;-57
2023/01/05 02:10:03;;;;;;;10.60;2.00;;;10.30;99.90;;;;;;6121850;23;20416;-56
2023/01/05 02:12:40;;;;;;;4.80;1.40;;;10.30;99.90;;;;;;6121323;23;20395;-55
2023/01/05 02:15:20;;;;;;;5.70;1.63;;;10.30;99.90;;;;;;6109485;23;20436;-56
2023/01/05 02:17:59;;;;;;;3.97;1.97;;;10.30;99.90;;;;;;6120531;23;20392;-59
2023/01/05 02:20:56;;;;;;;5.33;2.47;;;10.40;99.90;;;;;;6120275;23;20399;-57
2023/01/05 02:24:08;;;;;;;4.03;1.70;;;10.40;99.90;;;;;;6083894;23;20426;-57
2023/01/05 02:27:16;;;;;;;2.90;1.10;;;10.40;99.90;;;;;;6119818;23;20422;-57
2023/01/05 02:30:32;;;;;;;8.37;1.43;;;10.40;99.90;;;;;;6119761;23;20418;-57
2023/01/05 02:33:10;;;;;;;3.03;1.30;;;10.30;99.90;;;;;;6109530;23;20419;-58
2023/01/05 02:35:45;;;;;;;2.37;1.23;;;10.30;99.90;;;;;;6119723;23;20423;-58
2023/01/05 02:38:21;;;;;;;8.93;1.73;;;10.20;99.90;;;;;;6121140;23;20434;-56
2023/01/05 02:40:51;;;;;;;8.00;1.43;;;10.30;99.90;;;;;;6120890;23;20388;-56
2023/01/05 02:43:22;;;;;;;2.80;1.80;;;10.30;99.90;;;;;;6120683;23;20380;-57
2023/01/05 02:45:49;;;;;;;2.17;1.10;;;10.30;99.90;;;;;;6119972;23;20422;-59
2023/01/05 02:48:18;;;;;;;2.80;1.10;;;10.30;99.90;;;;;;6120331;23;20419;-58
2023/01/05 02:50:49;;;;;;;3.83;1.70;;;10.30;99.90;;;;;;6120317;23;20427;-53
2023/01/05 02:53:22;;;;;;;4.57;1.80;;;10.30;99.90;;;;;;6121655;23;20395;-57
2023/01/05 02:55:54;;;;;;;6.50;2.07;;;10.30;99.90;;;;;;6120839;23;20452;-58
2023/01/05 02:58:26;;;;;;;4.90;1.40;;;10.20;99.90;;;;;;6113878;23;20454;-57
2023/01/05 03:00:57;;;;;;;2.80;1.00;;;10.30;99.90;;;;;;6113910;23;20439;-53
2023/01/05 03:03:30;;;;;;;2.67;1.30;;;10.30;99.90;;;;;;6120871;23;20403;-55
2023/01/05 03:06:00;;;;;;;7.47;2.10;;;10.30;99.90;;;;;;6121285;23;20412;-55
2023/01/05 03:08:30;;;;;;;2.37;1.00;;;10.30;99.90;;;;;;6121798;23;20380;-53
2023/01/05 03:13:53;;;;;;;5.40;1.13;;;10.30;99.90;;;;;;6120714;23;20470;-54
2023/01/05 03:16:27;;;;;;;4.50;1.17;;;10.30;99.90;;;;;;6121637;23;20375;-59
2023/01/05 03:35:40;;;;;;;2.93;1.27;;;10.30;99.90;;;;;;6120202;23;20447;-56
2023/01/05 03:38:14;;;;;;;3.00;1.20;;;10.30;99.90;;;;;;6120208;23;20384;-58
2023/01/05 03:40:42;;;;;;;5.63;2.03;;;10.30;99.90;;;;;;6120766;23;20439;-59
2023/01/05 03:43:12;;;;;;;1.50;1.07;;;10.30;99.90;;;;;;6121374;23;20411;-59
2023/01/05 03:45:42;;;;;;;5.63;1.43;;;10.30;99.90;;;;;;6122457;23;20434;-57
2023/01/05 03:48:08;;;;;;;4.20;1.10;;;10.30;99.90;;;;;;6121901;23;20392;-57
2023/01/05 03:50:37;;;;;;;1.43;0.90;;;10.30;99.90;;;;;;6122018;23;20894;-58
2023/01/05 03:53:06;;;;;;;3.33;1.00;;;10.30;99.90;;;;;;6121215;23;20415;-58
2023/01/05 03:55:33;;;;;;;1.97;1.20;;;10.30;99.90;;;;;;6120889;23;20426;-58
2023/01/05 03:58:00;;;;;;;3.30;1.00;;;10.30;99.90;;;;;;6119367;23;20407;-60
2023/01/05 04:00:27;;;;;;;2.17;0.80;;;10.40;99.90;;;;;;6120191;23;20471;-59
2023/01/05 04:02:55;;;;;;;2.70;1.47;;;10.40;99.90;;;;;;6107246;23;20431;-59
2023/01/05 04:05:21;;;;;;;1.43;0.90;;;10.40;99.90;;;;;;6119512;23;20510;-59
2023/01/05 04:07:50;;;;;;;2.17;1.37;;;10.40;99.90;;;;;;6120034;23;20451;-57
2023/01/05 04:10:17;;;;;;;1.53;0.90;;;10.30;99.90;;;;;;6120820;23;20406;-58
2023/01/05 04:12:45;;;;;;;2.43;1.10;;;10.40;99.90;;;;;;6120631;23;20404;-56
2023/01/05 04:15:12;;;;;;;4.23;1.27;;;10.40;99.90;;;;;;6119421;23;20443;-59
2023/01/05 04:17:39;;;;;;;1.63;1.20;;;10.40;99.90;;;;;;6120414;23;20411;-56
2023/01/05 04:20:07;;;;;;;1.67;1.30;;;10.40;99.90;;;;;;6120654;23;20427;-57
2023/01/05 04:22:33;;;;;;;1.83;1.27;;;10.40;99.90;;;;;;6112869;23;20403;-59
2023/01/05 04:25:02;;;;;;;2.80;1.00;;;10.40;99.90;;;;;;6114445;23;20434;-59
2023/01/05 04:27:29;;;;;;;2.73;1.23;;;10.40;99.90;;;;;;6119678;23;20407;-59
2023/01/05 04:29:55;;;;;;;1.43;0.83;;;10.30;99.90;;;;;;6119600;23;20410;-56
2023/01/05 04:32:22;;;;;;;1.80;0.90;;;10.30;99.90;;;;;;6120466;23;20399;-59
2023/01/05 04:34:49;;;;;;;1.60;0.87;;;10.20;99.90;;;;;;6120983;23;20446;-59
2023/01/05 04:37:16;;;;;;;4.93;0.80;;;10.20;99.90;;;;;;6119931;23;20435;-58
2023/01/05 04:39:43;;;;;;;1.30;1.00;;;10.20;99.90;;;;;;6120762;23;20403;-56
2023/01/05 04:42:11;;;;;;;4.60;1.13;;;10.20;99.90;;;;;;6120194;23;20428;-55
2023/01/05 04:44:38;;;;;;;5.80;1.40;;;10.20;99.90;;;;;;6119805;23;20396;-58
2023/01/05 04:47:05;;;;;;;12.03;1.60;;;10.20;99.90;;;;;;6120148;23;20434;-59
2023/01/05 04:49:32;;;;;;;3.63;1.27;;;10.20;99.90;;;;;;6118872;23;20422;-58
2023/01/05 04:51:59;;;;;;;3.10;1.17;;;10.20;99.90;;;;;;6120816;23;20403;-57
2023/01/05 04:54:26;;;;;;;2.30;1.00;;;10.30;99.90;;;;;;6120433;23;20438;-57
2023/01/05 04:56:55;;;;;;;1.10;0.90;;;10.30;99.90;;;;;;6121500;23;20410;-60
2023/01/05 04:59:23;;;;;;;5.43;1.10;;;10.30;99.90;;;;;;6120874;23;20415;-59
2023/01/05 05:01:53;;;;;;;3.87;1.20;;;10.30;99.90;;;;;;6120873;23;20416;-59
2023/01/05 05:04:20;;;;;;;2.00;0.80;;;10.20;99.90;;;;;;6122052;23;20597;-58
2023/01/05 05:06:46;;;;;;;3.00;1.10;;;10.10;99.90;;;;;;6122842;23;20411;-57
2023/01/05 05:09:13;;;;;;;2.27;1.70;;;10.00;99.90;;;;;;6122610;23;20387;-59
2023/01/05 05:11:40;;;;;;;5.80;2.17;;;10.00;99.90;;;;;;6124520;23;20388;-59
2023/01/05 05:14:07;;;;;;;6.63;1.27;;;9.90;99.90;;;;;;6123226;23;20410;-60
2023/01/05 05:16:35;;;;;;;4.73;0.97;;;9.90;99.90;;;;;;6121677;23;20446;-59
2023/01/05 05:19:02;;;;;;;6.73;1.77;;;9.80;99.90;;;;;;6120966;23;20426;-60
2023/01/05 05:21:29;;;;;;;2.20;1.03;;;9.80;99.90;;;;;;6122872;23;20438;-59
2023/01/05 05:23:56;;;;;;;6.03;1.60;;;9.80;99.90;;;;;;6122361;23;20410;-55
2023/01/05 05:26:23;;;;;;;8.90;1.47;;;9.80;99.90;;;;;;6123389;23;20411;-57
2023/01/05 05:28:50;;;;;;;8.20;2.03;;;9.70;99.90;;;;;;6123230;23;20417;-56
2023/01/05 05:31:17;;;;;;;1.90;1.50;;;9.70;99.90;;;;;;6099347;23;20399;-60
2023/01/05 05:33:45;;;;;;;3.87;1.77;;;9.70;99.90;;;;;;6124198;23;20407;-55
2023/01/05 05:36:12;;;;;;;1.50;0.93;;;9.60;99.90;;;;;;6123319;23;20443;-60
2023/01/05 05:38:41;;;;;;;2.90;1.00;;;9.60;99.90;;;;;;6123754;23;20468;-59
2023/01/05 05:41:07;;;;;;;4.03;1.50;;;9.60;99.90;;;;;;6121816;23;20475;-59
2023/01/05 05:43:35;;;;;;;2.17;1.50;;;9.60;99.90;;;;;;6121474;23;20434;-60
2023/01/05 05:46:02;;;;;;;3.87;1.10;;;9.50;99.90;;;;;;6123232;23;20396;-59
2023/01/05 05:48:29;;;;;;;2.40;0.93;;;9.60;99.90;;;;;;6123265;23;20419;-62
2023/01/05 05:50:57;;;;;;;3.17;1.30;;;9.50;99.90;;;;;;6123155;23;20440;-59
2023/01/05 05:53:24;;;;;;;2.73;1.20;;;9.50;99.90;;;;;;6122293;23;20418;-60
2023/01/05 05:55:51;;;;;;;3.53;1.37;;;9.60;99.90;;;;;;6122242;23;20482;-58
2023/01/05 05:58:20;;;;;;;6.77;2.50;;;9.60;99.90;;;;;;6122381;23;20415;-59
2023/01/05 06:00:47;;;;;;;2.80;1.00;;;9.60;99.90;;;;;;6120070;23;20399;-57
2023/01/05 06:03:14;;;;;;;13.53;2.13;;;9.70;99.90;;;;;;6120074;23;20434;-59
2023/01/05 06:05:42;;;;;;;1.20;0.93;;;9.70;99.90;;;;;;6120932;23;20387;-59
2023/01/05 06:08:10;;;;;;;3.83;1.30;;;9.70;99.90;;;;;;6121199;23;20418;-59
2023/01/05 06:10:37;;;;;;;1.83;0.87;;;9.70;99.90;;;;;;6115030;23;20407;-59
2023/01/05 06:13:05;;;;;;;1.20;0.70;;;9.60;99.90;;;;;;6118912;23;20408;-56
2023/01/05 06:15:32;;;;;;;1.87;0.77;;;9.60;99.90;;;;;;6120126;23;20440;-57
2023/01/05 06:17:59;;;;;;;1.50;1.10;;;9.50;99.90;;;;;;6121398;23;20404;-57
2023/01/05 06:20:26;;;;;;;1.03;0.80;;;9.50;99.90;;;;;;6113574;23;20410;-58
2023/01/05 06:22:54;;;;;;;1.33;1.00;;;9.40;99.90;;;;;;6121107;23;20407;-57
2023/01/05 06:25:23;;;;;;;1.83;1.00;;;9.30;99.90;;;;;;6120064;23;20403;-58
2023/01/05 06:27:50;;;;;;;1.10;0.70;;;9.30;99.90;;;;;;6108817;23;20423;-57
2023/01/05 06:30:17;;;;;;;2.90;1.00;;;9.30;99.90;;;;;;6121249;23;20438;-57
2023/01/05 06:32:45;;;;;;;2.50;1.00;;;9.30;99.90;;;;;;6120618;23;20411;-59
2023/01/05 06:35:12;;;;;;;2.40;1.17;;;9.30;99.90;;;;;;6120418;23;20502;-58
2023/01/05 06:37:39;;;;;;;5.77;1.03;;;9.30;99.90;;;;;;6116672;23;20440;-59
2023/01/05 06:40:08;;;;;;;1.50;0.90;;;9.30;99.90;;;;;;6110238;23;20462;-55
2023/01/05 06:42:36;;;;;;;1.00;0.80;;;9.30;99.90;;;;;;6110534;23;20419;-58
2023/01/05 06:45:04;;;;;;;2.13;1.00;;;9.30;99.90;;;;;;6123662;23;20427;-60
2023/01/05 06:47:31;;;;;;;1.87;0.73;;;9.30;99.90;;;;;;6124361;23;20419;-62
2023/01/05 06:49:58;;;;;;;1.70;1.13;;;9.30;99.90;;;;;;6123073;23;20447;-58
2023/01/05 06:52:24;;;;;;;1.20;1.00;;;9.40;99.90;;;;;;6118090;23;20408;-58
2023/01/05 06:54:52;;;;;;;2.50;0.90;;;9.40;99.90;;;;;;6119974;23;20455;-61
2023/01/05 06:57:18;;;;;;;1.97;1.73;;;9.40;99.90;;;;;;6121101;23;20440;-58
2023/01/05 06:59:50;;;;;;;1.00;0.80;;;9.40;99.90;;;;;;6120533;23;20431;-59
2023/01/05 07:02:20;;;;;;;4.57;1.00;;;9.40;99.90;;;;;;6120213;23;20474;-60
2023/01/05 07:04:47;;;;;;;1.00;0.77;;;9.40;99.90;;;;;;6119338;23;20498;-56
2023/01/05 07:07:15;;;;;;;4.43;1.10;;;9.40;99.90;;;;;;6119490;23;20387;-59
2023/01/05 07:09:43;;;;;;;1.20;0.80;;;9.40;99.90;;;;;;6108210;23;20458;-55
2023/01/05 07:12:10;;;;;;;1.10;0.90;;;9.40;99.90;;;;;;6119790;23;20465;-55
2023/01/05 07:14:38;;;;;;;1.10;0.80;;;9.40;99.90;;;;;;6120408;23;20407;-59
2023/01/05 07:17:06;;;;;;;0.90;0.80;;;9.40;99.90;;;;;;6119544;23;20699;-61
2023/01/05 07:19:33;;;;;;;0.80;0.60;;;9.50;99.90;;;;;;6119954;23;20853;-58
2023/01/05 07:21:59;;;;;;;1.53;0.80;;;9.50;99.90;;;;;;6119962;23;20415;-58
2023/01/05 07:24:26;;;;;;;1.23;0.70;;;9.50;99.90;;;;;;6110990;23;20398;-57
2023/01/05 07:26:53;;;;;;;1.97;0.87;;;9.50;99.90;;;;;;6120355;23;20415;-56
2023/01/05 07:29:20;;;;;;;1.20;0.70;;;9.50;99.90;;;;;;6105371;23;20408;-58
2023/01/05 07:31:50;;;;;;;1.77;0.87;;;9.40;99.90;;;;;;6119721;23;20410;-57
2023/01/05 07:34:19;;;;;;;1.10;0.70;;;9.50;99.90;;;;;;6119505;23;20422;-62
2023/01/05 07:36:46;;;;;;;1.20;0.90;;;9.50;99.90;;;;;;6119257;23;20447;-59
2023/01/05 07:39:13;;;;;;;2.50;0.90;;;9.50;99.90;;;;;;6110943;23;20736;-57
2023/01/05 07:41:40;;;;;;;1.83;0.80;;;9.50;99.90;;;;;;6111272;23;20431;-59
2023/01/05 07:44:07;;;;;;;2.30;0.90;;;9.50;99.90;;;;;;6118128;23;20402;-59
2023/01/05 07:46:34;;;;;;;0.90;0.70;;;9.50;99.90;;;;;;6115684;23;20427;-60
2023/01/05 07:49:04;;;;;;;2.30;0.90;;;9.40;99.90;;;;;;6120330;23;20411;-59
2023/01/05 07:51:32;;;;;;;1.57;0.87;;;9.50;99.90;;;;;;6121215;23;20435;-59
2023/01/05 07:53:59;;;;;;;0.90;0.70;;;9.40;99.90;;;;;;6121046;23;20407;-58
2023/01/05 07:56:26;;;;;;;1.00;0.67;;;9.50;99.90;;;;;;6119121;23;20451;-56
2023/01/05 07:58:54;;;;;;;0.90;0.70;;;9.50;99.90;;;;;;6119310;23;20414;-57
2023/01/05 08:01:21;;;;;;;3.10;0.80;;;9.50;99.90;;;;;;6119766;23;20434;-59
2023/01/05 08:03:48;;;;;;;1.73;0.97;;;9.40;99.90;;;;;;6119553;23;20449;-61
2023/01/05 08:06:18;;;;;;;3.07;0.77;;;9.30;99.90;;;;;;6110222;23;20509;-56
2023/01/05 08:08:48;;;;;;;1.83;0.73;;;9.30;99.90;;;;;;6120046;23;20422;-57
2023/01/05 08:11:17;;;;;;;1.93;0.70;;;9.30;99.90;;;;;;6119791;23;20431;-56
2023/01/05 08:13:59;;;;;;;1.00;0.60;;;9.30;99.90;;;;;;6120501;23;20419;-60
2023/01/05 08:16:26;;;;;;;0.90;0.60;;;9.30;99.90;;;;;;6120209;23;20474;-57
2023/01/05 08:18:53;;;;;;;1.13;0.63;;;9.40;99.90;;;;;;6122291;23;20392;-56
2023/01/05 08:21:20;;;;;;;1.23;1.00;;;9.40;99.90;;;;;;6107707;23;20423;-58
2023/01/05 08:23:49;;;;;;;1.03;0.60;;;9.40;99.90;;;;;;6121080;23;20392;-59
2023/01/05 08:26:18;;;;;;;1.00;0.70;;;9.40;99.90;;;;;;6123017;23;20859;-59
2023/01/05 08:28:45;;;;;;;1.23;0.70;;;9.40;99.90;;;;;;6122910;23;20398;-57
2023/01/05 08:31:15;;;;;;;1.00;0.70;;;9.40;99.90;;;;;;6122283;23;20399;-59
2023/01/05 08:33:43;;;;;;;1.50;0.90;;;9.50;99.90;;;;;;6111928;23;20396;-58
2023/01/05 08:36:11;;;;;;;0.80;0.60;;;9.50;99.90;;;;;;6114947;23;20447;-58
2023/01/05 08:38:46;;;;;;;1.50;0.97;;;9.60;99.90;;;;;;6119253;23;20411;-59
2023/01/05 08:41:16;;;;;;;1.00;0.60;;;9.60;99.90;;;;;;6122351;23;20821;-58
2023/01/05 08:43:43;;;;;;;2.07;0.97;;;9.60;99.90;;;;;;6121897;23;20442;-57
2023/01/05 08:46:09;;;;;;;3.17;0.70;;;9.70;99.90;;;;;;6121288;23;20407;-54
2023/01/05 08:48:37;;;;;;;1.20;0.87;;;9.80;99.90;;;;;;6122252;23;20414;-59
2023/01/05 08:51:06;;;;;;;1.00;0.70;;;9.80;99.90;;;;;;6121017;23;20412;-57
2023/01/05 08:53:33;;;;;;;1.10;0.70;;;9.80;99.90;;;;;;6120476;23;20415;-57
2023/01/05 08:56:00;;;;;;;3.17;1.87;;;9.80;99.90;;;;;;6120221;23;20556;-57
2023/01/05 08:58:28;;;;;;;1.10;0.87;;;9.80;99.90;;;;;;6121700;23;20404;-59
2023/01/05 09:00:55;;;;;;;1.10;0.80;;;9.80;99.90;;;;;;6122647;23;20407;-58
2023/01/05 09:03:25;;;;;;;0.90;0.60;;;9.80;99.90;;;;;;6122386;23;20435;-58
2023/01/05 09:05:54;;;;;;;0.90;0.70;;;9.90;99.90;;;;;;6122499;23;20407;-59
2023/01/05 09:08:21;;;;;;;1.00;0.70;;;10.00;99.90;;;;;;6121174;23;20439;-59
2023/01/05 09:10:47;;;;;;;1.20;0.80;;;9.90;99.90;;;;;;6120934;23;20404;-60
2023/01/05 09:13:14;;;;;;;1.40;0.80;;;10.00;99.90;;;;;;6115615;23;20434;-54
2023/01/05 09:15:43;;;;;;;0.87;0.60;;;10.10;99.90;;;;;;6120835;23;20407;-58
2023/01/05 09:18:10;;;;;;;1.53;0.77;;;10.10;99.90;;;;;;6121245;23;20428;-61
2023/01/05 09:20:37;;;;;;;6.53;1.10;;;10.20;99.90;;;;;;6121631;23;20475;-56
2023/01/05 09:23:04;;;;;;;2.10;0.90;;;10.20;99.90;;;;;;6111048;23;20423;-59
2023/01/05 09:25:30;;;;;;;4.87;1.00;;;10.20;99.90;;;;;;6117051;23;20383;-59
2023/01/05 09:27:57;;;;;;;5.63;1.03;;;10.20;99.90;;;;;;6121316;23;20419;-60
2023/01/05 09:30:24;;;;;;;1.27;0.80;;;10.20;99.90;;;;;;6118976;23;20410;-59
2023/01/05 09:32:53;;;;;;;1.37;0.90;;;10.20;99.90;;;;;;6115455;23;20415;-56
2023/01/05 09:35:20;;;;;;;0.97;0.70;;;10.20;99.90;;;;;;6120578;23;20392;-58
2023/01/05 09:37:46;;;;;;;0.90;0.60;;;10.20;99.90;;;;;;6121419;23;20430;-53
2023/01/05 09:40:13;;;;;;;1.93;1.17;;;10.20;99.90;;;;;;6115397;23;20406;-59
2023/01/05 09:42:45;;;;;;;5.80;0.80;;;10.20;99.90;;;;;;6112697;23;20412;-56
2023/01/05 09:45:25;;;;;;;8.80;1.00;;;10.10;99.90;;;;;;6113505;23;20464;-57
2023/01/05 09:47:55;;;;;;;3.43;0.90;;;10.10;99.90;;;;;;6118206;23;20380;-53
2023/01/05 09:50:25;;;;;;;1.57;0.87;;;10.30;99.90;;;;;;6122280;23;20395;-54
2023/01/05 09:52:55;;;;;;;2.43;0.87;;;10.30;99.90;;;;;;6121929;23;20415;-58
2023/01/05 09:55:24;;;;;;;3.83;1.03;;;10.30;99.90;;;;;;6121260;23;20427;-57
2023/01/05 09:57:56;;;;;;;0.90;0.70;;;10.20;99.90;;;;;;6121774;23;20922;-58
2023/01/05 10:00:25;;;;;;;1.97;1.10;;;10.10;99.90;;;;;;6120267;23;20465;-57
2023/01/05 10:02:57;;;;;;;1.07;0.90;;;10.00;99.90;;;;;;6120103;23;20467;-54
2023/01/05 10:05:26;;;;;;;1.30;1.07;;;10.00;99.90;;;;;;6117566;23;20455;-54
2023/01/05 10:07:58;;;;;;;5.63;1.00;;;10.00;99.90;;;;;;6117450;23;20404;-59
2023/01/05 10:13:01;;;;;;;1.43;0.80;;;10.00;99.90;;;;;;6120583;23;20469;-62
2023/01/05 10:13:35;;;;;;;1.50;1.00;;;10.00;99.90;;;;;;6120900;23;20396;-56
2023/01/05 10:16:02;;;;;;;0.97;0.80;;;9.90;99.90;;;;;;6120695;23;20431;-57
2023/01/05 10:18:33;;;;;;;6.20;1.10;;;9.90;99.90;;;;;;6122158;23;20409;-56
2023/01/05 10:21:10;;;;;;;1.10;1.00;;;9.80;99.90;;;;;;6116827;23;20454;-58
2023/01/05 10:23:53;;;;;;;4.40;1.23;;;9.80;99.90;;;;;;6122420;23;20407;-60
2023/01/05 10:26:26;;;;;;;2.43;1.40;;;9.80;99.90;;;;;;6117908;23;20423;-59
2023/01/05 10:28:59;;;;;;;1.30;0.83;;;9.80;99.90;;;;;;6119535;23;20392;-56
2023/01/05 10:31:46;;;;;;;1.00;0.70;;;9.80;99.90;;;;;;6121487;23;20432;-54
2023/01/05 10:34:21;;;;;;;1.33;0.93;;;9.90;99.90;;;;;;6119375;23;20392;-59
2023/01/05 10:37:09;;;;;;;1.70;0.90;;;9.90;99.90;;;;;;6119281;23;20458;-57
2023/01/05 10:39:56;;;;;;;1.67;1.23;;;9.90;99.90;;;;;;6120527;23;20380;-59
2023/01/05 10:42:36;;;;;;;4.50;0.80;;;9.90;99.90;;;;;;6118918;23;20427;-63
2023/01/05 10:45:08;;;;;;;4.80;1.00;;;9.80;99.90;;;;;;6119595;23;20392;-59
2023/01/05 10:47:39;;;;;;;1.00;0.60;;;9.80;99.90;;;;;;6120343;23;20431;-53
2023/01/05 10:50:29;;;;;;;1.40;1.03;;;9.80;99.90;;;;;;6120028;23;20415;-55
2023/01/05 10:52:58;;;;;;;1.83;0.80;;;9.80;99.90;;;;;;6118837;23;20439;-58
2023/01/05 10:55:27;;;;;;;1.53;0.80;;;9.90;99.90;;;;;;6119194;23;20511;-58
2023/01/05 10:57:54;;;;;;;1.67;1.00;;;9.90;99.90;;;;;;6118596;23;20447;-60
2023/01/05 11:00:38;;;;;;;1.47;0.90;;;9.90;99.90;;;;;;6119948;23;20757;-59
2023/01/05 11:03:07;;;;;;;10.83;1.33;;;9.90;99.90;;;;;;6118567;23;20414;-56
2023/01/05 11:05:38;;;;;;;1.63;1.00;;;9.90;99.90;;;;;;6119231;23;20399;-59
2023/01/05 11:08:12;;;;;;;0.90;0.70;;;9.90;99.90;;;;;;6119840;23;20424;-57
2023/01/05 11:10:47;;;;;;;6.73;1.20;;;9.90;99.90;;;;;;6120561;23;20391;-56
2023/01/05 11:13:22;;;;;;;0.90;0.50;;;9.90;99.90;;;;;;6120102;23;20467;-58
2023/01/05 11:15:54;;;;;;;2.00;1.60;;;9.90;99.90;;;;;;6120486;23;20753;-56
2023/01/05 11:18:26;;;;;;;1.27;0.80;;;10.00;99.90;;;;;;6120895;23;20444;-58
2023/01/05 11:21:10;;;;;;;1.50;0.83;;;10.00;99.90;;;;;;6122118;23;20399;-58
2023/01/05 11:23:38;;;;;;;2.60;1.07;;;9.90;99.90;;;;;;6121274;23;20431;-59
2023/01/05 11:26:29;;;;;;;7.77;1.20;;;9.90;99.90;;;;;;6120656;23;20404;-56
2023/01/05 11:29:13;;;;;;;3.33;1.23;;;9.80;99.90;;;;;;6120376;23;20427;-58
2023/01/05 11:31:46;;;;;;;1.50;0.87;;;9.80;99.90;;;;;;6118846;23;20388;-51
2023/01/05 11:34:27;;;;;;;2.80;1.30;;;9.80;99.90;;;;;;6120528;23;20451;-63
2023/01/05 11:36:57;;;;;;;7.03;1.00;;;9.90;99.90;;;;;;6119468;23;20446;-56
2023/01/05 11:39:29;;;;;;;1.77;0.70;;;9.90;99.90;;;;;;6119488;23;20412;-60
2023/01/05 11:42:27;;;;;;;4.50;1.13;;;9.80;99.90;;;;;;6119310;23;20388;-58
2023/01/05 11:44:59;;;;;;;2.10;1.43;;;9.80;99.90;;;;;;6097128;23;20411;-59
2023/01/05 11:47:29;;;;;;;8.13;1.27;;;9.80;99.90;;;;;;6118904;23;20384;-57
2023/01/05 11:50:03;;;;;;;2.00;0.90;;;9.80;99.90;;;;;;6119157;23;20431;-55
2023/01/05 11:52:36;;;;;;;1.00;0.80;;;9.90;99.90;;;;;;6119204;23;20424;-55
2023/01/05 11:55:32;;;;;;;3.40;1.40;;;10.00;99.90;;;;;;6119515;23;20439;-60
2023/01/05 11:58:28;;;;;;;1.80;0.90;;;9.90;99.90;;;;;;6120016;23;20491;-57
2023/01/05 12:01:37;;;;;;;2.90;0.80;;;9.90;99.90;;;;;;6120736;23;20432;-60
2023/01/05 12:04:12;;;;;;;2.83;1.43;;;9.90;99.90;;;;;;6090063;23;20395;-60
2023/01/05 12:06:55;;;;;;;4.10;1.27;;;9.80;99.90;;;;;;6122376;23;20380;-56
2023/01/05 12:09:28;;;;;;;2.13;1.50;;;9.70;99.90;;;;;;6122303;23;20384;-56
2023/01/05 12:12:06;;;;;;;2.77;1.00;;;9.70;99.90;;;;;;6122417;23;20404;-52
2023/01/05 12:14:47;;;;;;;4.13;1.40;;;9.70;99.90;;;;;;6117186;23;20372;-54
2023/01/05 12:17:15;;;;;;;1.00;0.80;;;9.70;99.90;;;;;;6119897;23;20426;-58
2023/01/05 12:19:57;;;;;;;4.10;1.07;;;9.80;99.90;;;;;;6120195;23;20399;-54
2023/01/05 12:22:57;;;;;;;2.27;1.03;;;9.90;99.90;;;;;;6120557;23;20380;-54
2023/01/05 12:25:44;;;;;;;3.53;1.10;;;9.90;99.90;;;;;;6121007;23;20388;-56
2023/01/05 12:28:28;;;;;;;6.20;1.00;;;9.90;99.90;;;;;;6119774;23;20380;-54
2023/01/05 12:31:03;;;;;;;9.20;1.10;;;9.90;99.90;;;;;;6120643;23;20387;-57
2023/01/05 12:33:45;;;;;;;9.70;1.07;;;9.90;99.90;;;;;;6120054;23;20379;-59
2023/01/05 12:36:31;;;;;;;2.30;1.00;;;9.90;99.90;;;;;;6121004;23;20391;-59
2023/01/05 12:39:12;;;;;;;3.93;0.87;;;9.90;99.90;;;;;;6120310;23;20423;-57
2023/01/05 12:41:55;;;;;;;2.70;0.97;;;9.80;99.90;;;;;;6120590;23;20435;-62
2023/01/05 12:44:50;;;;;;;4.00;0.90;;;9.80;99.90;;;;;;6120213;23;20406;-57
2023/01/05 12:47:46;;;;;;;3.43;1.23;;;9.80;99.90;;;;;;6120177;23;20420;-59
2023/01/05 12:50:25;;;;;;;2.60;1.10;;;9.80;99.90;;;;;;6120269;23;20414;-55
2023/01/05 12:52:57;;;;;;;1.83;0.70;;;9.80;99.90;;;;;;6121006;23;20435;-57
2023/01/05 12:55:28;;;;;;;3.00;1.30;;;9.80;99.90;;;;;;6121543;23;20392;-58
2023/01/05 12:58:03;;;;;;;3.67;1.00;;;9.80;99.90;;;;;;6120924;23;20466;-58
2023/01/05 13:00:40;;;;;;;9.70;1.60;;;9.80;99.90;;;;;;6121944;23;20374;-63
2023/01/05 13:03:16;;;;;;;1.47;1.10;;;9.80;99.90;;;;;;6120859;23;20458;-59
2023/01/05 13:05:51;;;;;;;1.53;0.90;;;9.80;99.90;;;;;;6120977;23;20430;-65
2023/01/05 13:08:23;;;;;;;2.33;0.97;;;10.00;99.90;;;;;;6121070;23;20438;-61
2023/01/05 13:10:56;;;;;;;1.37;1.00;;;10.00;99.90;;;;;;6121870;23;20410;-60
2023/01/05 13:13:29;;;;;;;1.30;1.00;;;10.00;99.90;;;;;;6106796;23;20435;-59
2023/01/05 13:16:02;;;;;;;2.27;0.90;;;10.10;99.90;;;;;;6119563;23;20479;-59
2023/01/05 13:18:32;;;;;;;10.43;1.20;;;10.20;99.90;;;;;;6122060;23;20507;-59
2023/01/05 13:21:01;;;;;;;1.30;0.90;;;10.20;99.90;;;;;;6121470;23;20479;-60
2023/01/05 13:23:31;;;;;;;5.73;1.37;;;10.10;99.90;;;;;;6121073;23;20438;-59
2023/01/05 13:26:01;;;;;;;1.93;1.10;;;10.10;99.90;;;;;;6122023;23;20416;-61
2023/01/05 13:28:30;;;;;;;1.47;0.77;;;10.00;99.90;;;;;;6106853;23;20392;-59
2023/01/05 13:31:30;;;;;;;3.17;1.20;;;10.00;99.90;;;;;;6120647;23;20422;-59
2023/01/05 13:34:18;;;;;;;3.63;1.20;;;9.90;99.90;;;;;;6102824;23;20415;-57
2023/01/05 13:37:17;;;;;;;2.77;1.00;;;9.80;99.90;;;;;;6122635;23;20395;-60
2023/01/05 13:40:10;;;;;;;1.40;0.90;;;9.80;99.90;;;;;;6072987;23;20400;-58
2023/01/05 13:42:57;;;;;;;1.30;0.87;;;9.80;99.90;;;;;;6121094;23;20395;-59
2023/01/05 13:46:05;;;;;;;1.10;0.93;;;9.80;99.90;;;;;;6119716;23;20435;-58
2023/01/05 13:48:54;;;;;;;3.83;1.00;;;9.80;99.90;;;;;;6120952;23;20407;-56